Sacre-Coeur, Canada
Current Conditions -  °F | °C
As of 2:00 AM on Saturday 25 Oct 2014 (Local Time) from CYYY Reporting Station
Overcast Overcast  
Wind Chill: 38°   Ceiling: 10000
Heat Index: 41°   Visibility: 30mi
Dew Point: 30°   Wind: 5mph
Humidity: 65%   Direction: 230°SW
Pressure: 29.69"   Gusts: NA
Location:  48.43°N, 68.58°W
Report Text: CYYY 250600Z 23004KT 30SM OVC100 05/M01 A2969 RMK AC8 SLP057
Loading
Personal Weather Stations






























Interactive Weather Map New forecast layout! Learn more

10-Day Weather Forecast

Advertisements
Track Severe Weather on mobile